createdAt,value
2023-05-25T00:01:35.644Z,79.65
2023-05-25T00:06:42.983Z,79.76
2023-05-25T00:11:45.575Z,79.30
2023-05-25T00:16:51.632Z,78.99
2023-05-25T00:21:54.765Z,79.48
2023-05-25T00:27:01.237Z,79.62
2023-05-25T00:32:06.726Z,79.82
2023-05-25T00:37:09.035Z,79.16
2023-05-25T00:42:24.554Z,78.50
2023-05-25T00:47:27.654Z,78.20
2023-05-25T00:52:30.049Z,78.30
2023-05-25T00:57:57.357Z,78.31
2023-05-25T01:03:14.722Z,78.69
2023-05-25T01:08:28.693Z,78.98
2023-05-25T01:13:34.459Z,79.60
2023-05-25T01:18:39.943Z,79.35
2023-05-25T01:23:54.220Z,79.07
2023-05-25T01:29:01.954Z,79.18
2023-05-25T01:34:09.629Z,78.96
2023-05-25T01:39:12.798Z,78.50
2023-05-25T01:44:19.335Z,78.56
2023-05-25T01:49:52.408Z,78.35
2023-05-25T01:55:06.452Z,77.93
2023-05-25T02:00:21.702Z,78.39
2023-05-25T02:05:23.870Z,78.48
2023-05-25T02:10:26.232Z,78.59
2023-05-25T02:15:34.098Z,79.08
2023-05-25T02:20:37.786Z,79.02
2023-05-25T02:25:39.816Z,79.26
2023-05-25T02:30:42.030Z,79.19
2023-05-25T02:35:47.147Z,79.12
2023-05-25T02:40:58.572Z,79.37
2023-05-25T02:46:09.812Z,79.15
2023-05-25T02:51:15.210Z,79.36
2023-05-25T02:56:31.404Z,79.25
2023-05-25T03:06:51.810Z,79.25
2023-05-25T03:12:03.522Z,78.79
2023-05-25T03:17:07.835Z,78.78
2023-05-25T03:22:19.043Z,79.04
2023-05-25T03:27:21.450Z,78.51
2023-05-25T03:32:25.267Z,78.73
2023-05-25T03:37:31.101Z,78.86
2023-05-25T03:42:37.480Z,79.12
2023-05-25T03:47:40.797Z,78.49
2023-05-25T03:52:43.829Z,78.63
2023-05-25T03:57:45.992Z,79.30
2023-05-25T04:02:48.568Z,80.17
2023-05-25T04:07:52.234Z,80.62
2023-05-25T04:12:57.512Z,80.79
2023-05-25T04:18:03.040Z,80.81
2023-05-25T04:23:06.331Z,80.80
2023-05-25T04:28:09.353Z,80.83
2023-05-25T04:33:22.123Z,80.68
2023-05-25T04:38:35.507Z,80.45
2023-05-25T04:43:40.428Z,80.52
2023-05-25T04:48:48.536Z,80.15
2023-05-25T04:53:51.310Z,79.88
2023-05-25T04:58:54.166Z,80.06
2023-05-25T05:03:59.834Z,79.94
2023-05-25T05:09:03.292Z,80.11
2023-05-25T05:14:08.630Z,80.05
2023-05-25T05:19:11.860Z,80.17
2023-05-25T05:24:16.446Z,80.13
2023-05-25T05:29:19.984Z,79.70
2023-05-25T05:34:22.997Z,79.46
2023-05-25T05:39:27.379Z,79.23
2023-05-25T05:44:30.948Z,79.31
2023-05-25T05:49:35.045Z,79.21
2023-05-25T05:54:38.668Z,79.28
2023-05-25T05:59:55.884Z,79.00
2023-05-25T06:04:58.375Z,78.47
2023-05-25T06:10:01.097Z,78.09
2023-05-25T06:15:03.723Z,77.81
2023-05-25T06:20:11.150Z,78.05
2023-05-25T06:25:40.457Z,77.73
2023-05-25T06:30:43.775Z,77.72
2023-05-25T06:35:52.761Z,78.21
2023-05-25T06:41:02.666Z,78.43
2023-05-25T06:46:05.109Z,78.55
2023-05-25T06:51:17.084Z,78.11
2023-05-25T06:56:20.056Z,78.05
2023-05-25T07:01:25.789Z,77.68
2023-05-25T07:06:28.157Z,76.77
2023-05-25T07:11:30.218Z,76.07
2023-05-25T07:16:33.252Z,75.89
2023-05-25T07:21:37.270Z,76.10
2023-05-25T07:26:50.680Z,76.05
2023-05-25T07:31:52.696Z,76.15
2023-05-25T07:37:33.457Z,76.37
2023-05-25T07:42:36.751Z,76.29
2023-05-25T07:47:41.943Z,76.01
2023-05-25T07:52:45.266Z,76.00
2023-05-25T07:57:47.434Z,75.76
2023-05-25T08:02:53.326Z,75.51
2023-05-25T08:07:56.323Z,75.21
2023-05-25T08:12:59.208Z,74.14
2023-05-25T08:18:06.665Z,74.43
2023-05-25T08:23:09.690Z,73.94
2023-05-25T08:28:11.738Z,74.30
2023-05-25T08:33:15.065Z,74.32
2023-05-25T08:38:17.108Z,74.40
2023-05-25T08:43:28.704Z,73.76
2023-05-25T08:48:41.168Z,73.62
2023-05-25T08:53:45.360Z,73.17
2023-05-25T08:59:16.882Z,72.41
2023-05-25T09:04:21.188Z,72.47
2023-05-25T09:09:23.810Z,72.30
2023-05-25T09:14:28.422Z,71.88
2023-05-25T09:19:30.547Z,72.33
2023-05-25T09:24:36.980Z,71.72
2023-05-25T09:29:49.534Z,71.28
2023-05-25T09:34:51.803Z,71.24
2023-05-25T09:39:53.748Z,70.03
2023-05-25T09:44:55.714Z,69.75
2023-05-25T09:50:00.155Z,69.97
2023-05-25T09:55:10.478Z,69.88
2023-05-25T10:00:13.245Z,69.28
2023-05-25T10:05:16.049Z,69.27
2023-05-25T10:10:19.253Z,69.21
2023-05-25T10:15:22.427Z,68.96
2023-05-25T10:20:29.631Z,69.39
2023-05-25T10:26:09.527Z,69.91
2023-05-25T10:31:18.774Z,69.24
2023-05-25T10:36:41.233Z,67.73
2023-05-25T10:41:46.150Z,67.62
2023-05-25T10:46:55.671Z,67.48
2023-05-25T10:51:59.854Z,66.98
2023-05-25T10:57:16.145Z,67.26
2023-05-25T11:02:23.766Z,67.01
2023-05-25T11:07:26.099Z,66.86
2023-05-25T11:12:28.509Z,66.72
2023-05-25T11:17:32.879Z,67.18
2023-05-25T11:22:37.388Z,66.40
2023-05-25T11:27:47.372Z,66.53
2023-05-25T11:32:50.918Z,66.56
2023-05-25T11:37:55.430Z,67.00
2023-05-25T11:43:00.817Z,67.76
2023-05-25T11:48:05.176Z,68.60
2023-05-25T11:53:07.377Z,68.86
2023-05-25T11:58:09.800Z,69.29
2023-05-25T12:03:33.184Z,69.38
2023-05-25T12:08:36.622Z,69.67
2023-05-25T12:13:41.016Z,69.23
2023-05-25T12:18:43.443Z,68.28
2023-05-25T12:23:46.357Z,68.44
2023-05-25T12:29:10.286Z,67.31
2023-05-25T12:34:13.551Z,67.39
2023-05-25T12:39:31.744Z,67.35
2023-05-25T12:44:36.047Z,67.61
2023-05-25T12:49:39.057Z,67.28
2023-05-25T12:54:46.140Z,67.77
2023-05-25T12:59:56.429Z,68.02
2023-05-25T13:04:58.878Z,68.21
2023-05-25T13:10:00.924Z,67.82
2023-05-25T13:15:09.858Z,68.52
2023-05-25T13:20:16.235Z,68.61
2023-05-25T13:25:20.936Z,68.71
2023-05-25T13:30:23.684Z,68.32
2023-05-25T13:35:41.863Z,67.76
2023-05-25T13:40:45.485Z,68.09
2023-05-25T13:45:48.086Z,67.80
2023-05-25T13:50:50.571Z,67.49
2023-05-25T13:55:52.596Z,67.85
2023-05-25T14:00:54.607Z,68.18
2023-05-25T14:05:57.019Z,68.77
2023-05-25T14:10:59.029Z,69.24
2023-05-25T14:16:01.191Z,69.13
2023-05-25T14:21:03.627Z,69.48
2023-05-25T14:26:05.761Z,69.63
2023-05-25T14:31:07.897Z,69.59
2023-05-25T14:36:11.134Z,69.28
2023-05-25T14:41:13.166Z,68.65
2023-05-25T14:46:18.364Z,68.26
2023-05-25T14:51:20.462Z,68.73
2023-05-25T14:56:23.667Z,68.93
2023-05-25T15:01:29.953Z,69.18
2023-05-25T15:06:34.694Z,69.58
2023-05-25T15:11:36.991Z,69.70
2023-05-25T15:16:39.067Z,69.93
2023-05-25T15:21:41.216Z,69.90
2023-05-25T15:26:43.852Z,69.95
2023-05-25T15:31:46.245Z,69.75
2023-05-25T15:36:50.453Z,69.70
2023-05-25T15:41:52.246Z,69.69
2023-05-25T15:46:54.258Z,70.00
2023-05-25T15:51:56.225Z,70.13
2023-05-25T15:56:58.071Z,70.65
2023-05-25T16:02:00.248Z,70.28
2023-05-25T16:07:04.332Z,70.52
2023-05-25T16:12:07.261Z,70.29
2023-05-25T16:17:09.201Z,69.74
2023-05-25T16:22:11.157Z,69.64
2023-05-25T16:27:13.324Z,69.33
2023-05-25T16:32:15.520Z,69.19
2023-05-25T16:37:17.780Z,69.42
2023-05-25T16:42:19.941Z,69.82
2023-05-25T16:47:22.732Z,69.41
2023-05-25T16:52:24.714Z,69.70
2023-05-25T16:57:27.493Z,70.29
2023-05-25T17:02:29.637Z,70.46
2023-05-25T17:07:33.353Z,70.85
2023-05-25T17:12:35.555Z,71.24
2023-05-25T17:17:37.617Z,71.47
2023-05-25T17:22:39.764Z,72.00
2023-05-25T17:27:41.817Z,72.39
2023-05-25T17:32:43.811Z,72.36
2023-05-25T17:37:45.721Z,72.25
2023-05-25T17:42:47.672Z,72.10
2023-05-25T17:47:50.181Z,72.61
2023-05-25T17:52:52.289Z,72.39
2023-05-25T17:57:54.351Z,72.48
2023-05-25T18:02:56.544Z,71.94
2023-05-25T18:07:58.772Z,72.33
2023-05-25T18:13:01.015Z,72.64
2023-05-25T18:18:05.720Z,72.59
2023-05-25T18:23:08.369Z,72.25
2023-05-25T18:28:12.326Z,72.31
2023-05-25T18:33:14.518Z,72.48
2023-05-25T18:38:16.449Z,72.88
2023-05-25T18:43:18.584Z,73.05
2023-05-25T18:48:21.215Z,73.67
2023-05-25T18:53:23.190Z,73.34
2023-05-25T18:58:25.041Z,73.35
2023-05-25T19:03:27.591Z,73.58
2023-05-25T19:08:29.711Z,73.71
2023-05-25T19:13:31.667Z,73.86
2023-05-25T19:18:33.370Z,74.02
2023-05-25T19:23:35.404Z,74.41
2023-05-25T19:28:37.401Z,74.75
2023-05-25T19:33:39.263Z,74.74
2023-05-25T19:38:42.366Z,75.22
2023-05-25T19:43:44.507Z,75.16
2023-05-25T19:48:46.369Z,75.19
2023-05-25T19:53:49.102Z,75.38
2023-05-25T19:58:51.107Z,75.97
2023-05-25T20:03:56.033Z,75.60
2023-05-25T20:08:58.553Z,76.36
2023-05-25T20:14:03.335Z,76.24
2023-05-25T20:19:11.069Z,76.81
2023-05-25T20:24:22.234Z,77.33
2023-05-25T20:29:27.488Z,76.86
2023-05-25T20:34:34.122Z,76.45
2023-05-25T20:39:36.575Z,76.18
2023-05-25T20:44:42.134Z,76.67
2023-05-25T20:49:44.263Z,77.05
2023-05-25T20:54:48.795Z,77.13
2023-05-25T20:59:54.397Z,77.85
2023-05-25T21:05:05.253Z,78.16
2023-05-25T21:10:15.716Z,77.98
2023-05-25T21:15:32.678Z,77.38
2023-05-25T21:20:39.895Z,77.21
2023-05-25T21:25:42.321Z,76.95
2023-05-25T21:30:49.824Z,77.09
2023-05-25T21:36:02.579Z,77.42
2023-05-25T21:41:15.458Z,77.52
2023-05-25T21:46:21.243Z,77.19
2023-05-25T21:51:34.436Z,76.93
2023-05-25T21:56:52.105Z,77.17
2023-05-25T22:02:14.859Z,76.89
2023-05-25T22:07:30.792Z,77.02
2023-05-25T22:12:36.651Z,77.13
2023-05-25T22:17:41.687Z,77.03
2023-05-25T22:23:04.612Z,77.31
2023-05-25T22:28:10.813Z,77.17
2023-05-25T22:33:17.904Z,77.31
2023-05-25T22:38:25.443Z,77.31
2023-05-25T22:43:55.624Z,77.45
2023-05-25T22:49:06.410Z,77.60
2023-05-25T22:54:36.788Z,77.60
2023-05-25T22:59:51.224Z,78.10
2023-05-25T23:05:09.753Z,78.58
2023-05-25T23:10:27.005Z,77.80
2023-05-25T23:15:44.313Z,77.59
2023-05-25T23:20:59.977Z,77.78
2023-05-25T23:26:22.158Z,77.91
2023-05-25T23:31:41.040Z,77.64
2023-05-25T23:36:49.277Z,77.83
2023-05-25T23:42:10.297Z,77.65
2023-05-25T23:47:16.371Z,77.53
2023-05-25T23:52:48.846Z,77.79
2023-05-25T23:58:36.157Z,77.56
